createdAt,value
2018-07-23T00:07:58.885Z,11.57
2018-07-23T00:18:00.896Z,13.40
2018-07-23T00:28:02.147Z,12.67
2018-07-23T00:38:03.393Z,14.57
2018-07-23T00:48:04.658Z,14.40
2018-07-23T00:58:06.686Z,13.40
2018-07-23T01:08:07.936Z,15.00
2018-07-23T01:18:09.171Z,13.70
2018-07-23T01:28:11.174Z,15.00
2018-07-23T01:38:13.174Z,14.80
2018-07-23T01:48:14.412Z,15.73
2018-07-23T02:08:22.794Z,17.77
2018-07-23T02:18:24.827Z,17.37
2018-07-23T02:28:26.877Z,16.87
2018-07-23T02:38:28.124Z,17.93
2018-07-23T02:48:29.386Z,16.27
2018-07-23T02:58:30.659Z,17.70
2018-07-23T03:08:31.934Z,18.37
2018-07-23T03:18:33.227Z,17.33
2018-07-23T03:28:34.509Z,18.47
2018-07-23T03:38:36.528Z,17.77
2018-07-23T03:48:38.542Z,19.63
2018-07-23T03:58:40.569Z,16.57
2018-07-23T04:08:41.821Z,17.17
2018-07-23T04:18:43.058Z,16.87
2018-07-23T04:28:44.323Z,18.33
2018-07-23T04:38:45.575Z,17.47
2018-07-23T04:48:46.830Z,16.00
2018-07-23T04:58:48.075Z,15.77
2018-07-23T05:08:55.112Z,14.70
2018-07-23T05:18:56.363Z,15.50
2018-07-23T05:28:57.657Z,15.27
2018-07-23T05:38:58.909Z,16.67
2018-07-23T05:49:00.178Z,17.27
2018-07-23T05:59:01.538Z,17.07
2018-07-23T06:09:02.804Z,15.90
2018-07-23T06:19:04.078Z,14.97
2018-07-23T06:29:05.358Z,13.87
2018-07-23T06:39:06.660Z,13.53
2018-07-23T06:49:07.952Z,13.17
2018-07-23T06:59:11.332Z,12.70
2018-07-23T07:09:12.616Z,14.07
2018-07-23T07:19:13.905Z,12.00
2018-07-23T07:29:15.173Z,12.43
2018-07-23T07:39:16.437Z,12.33
2018-07-23T07:49:18.466Z,10.83
2018-07-23T07:59:20.845Z,10.90
2018-07-23T08:09:22.113Z,10.60
2018-07-23T08:19:23.392Z,9.20
2018-07-23T08:29:24.658Z,8.57
2018-07-23T08:39:26.742Z,8.20
2018-07-23T08:49:28.842Z,6.73
2018-07-23T08:59:30.097Z,7.00
2018-07-23T09:09:31.389Z,6.47
2018-07-23T09:19:32.707Z,6.47
2018-07-23T09:29:34.002Z,6.23
2018-07-23T09:39:38.420Z,6.57
2018-07-23T09:49:39.699Z,6.83
2018-07-23T09:59:40.970Z,7.73
2018-07-23T10:09:42.256Z,7.60
2018-07-23T10:19:43.562Z,6.97
2018-07-23T10:29:47.959Z,7.27
2018-07-23T10:39:49.226Z,7.40
2018-07-23T10:49:50.506Z,7.93
2018-07-23T10:59:51.772Z,7.47
2018-07-23T11:09:53.817Z,6.90
2018-07-23T11:19:55.094Z,7.40
2018-07-23T11:29:57.122Z,6.77
2018-07-23T11:40:04.406Z,6.80
2018-07-23T11:50:05.665Z,7.57
2018-07-23T12:00:06.939Z,7.30
2018-07-23T12:10:08.966Z,6.83
2018-07-23T12:20:10.232Z,7.33
2018-07-23T12:30:11.510Z,6.70
2018-07-23T12:40:12.791Z,7.27
2018-07-23T12:50:14.074Z,7.20
2018-07-23T13:00:16.110Z,7.23
2018-07-23T13:10:17.382Z,6.50
2018-07-23T13:20:19.437Z,7.17
2018-07-23T13:30:20.739Z,7.80
2018-07-23T13:40:22.204Z,6.97
2018-07-23T13:50:23.495Z,7.57
2018-07-23T14:00:25.541Z,7.53
2018-07-23T14:10:26.828Z,8.43
2018-07-23T14:20:28.159Z,7.67
2018-07-23T14:30:29.429Z,8.30
2018-07-23T14:40:30.693Z,8.20
2018-07-23T14:50:32.731Z,8.93
2018-07-23T15:00:34.081Z,8.80
2018-07-23T15:10:35.325Z,8.73
2018-07-23T15:20:37.343Z,8.20
2018-07-23T15:40:46.175Z,8.77
2018-07-23T15:50:47.432Z,8.47
2018-07-23T16:00:48.754Z,9.13
2018-07-23T16:10:50.064Z,9.37
2018-07-23T16:20:52.085Z,9.10
2018-07-23T16:30:54.534Z,8.47
2018-07-23T16:40:55.786Z,9.17
2018-07-23T16:50:57.047Z,8.73
2018-07-23T17:00:58.307Z,9.13
2018-07-23T17:10:59.585Z,9.27
2018-07-23T17:21:05.252Z,10.50
2018-07-23T17:41:14.316Z,9.40
2018-07-23T17:51:15.585Z,10.30
2018-07-23T18:01:17.616Z,12.17
2018-07-23T18:11:18.974Z,10.70
2018-07-23T18:21:20.190Z,10.63
2018-07-23T18:31:22.241Z,11.07
2018-07-23T18:41:23.542Z,11.57
2018-07-23T18:51:24.825Z,13.63
2018-07-23T19:01:26.138Z,13.77
2018-07-23T19:11:27.422Z,12.20
2018-07-23T19:31:35.870Z,12.37
2018-07-23T20:01:50.204Z,13.03
2018-07-23T20:21:58.811Z,12.17
2018-07-23T20:32:00.129Z,12.53
2018-07-23T20:42:01.806Z,12.00
2018-07-23T20:52:03.071Z,11.47
2018-07-23T21:12:12.718Z,12.83
2018-07-23T21:22:14.788Z,14.10
2018-07-23T21:32:16.102Z,13.93
2018-07-23T21:42:17.339Z,13.43
2018-07-23T21:52:18.609Z,12.77
2018-07-23T22:02:19.879Z,13.80
2018-07-23T22:12:21.150Z,13.00
2018-07-23T22:22:22.430Z,13.57
2018-07-23T22:32:23.698Z,13.70
2018-07-23T22:42:24.988Z,13.87
2018-07-23T22:52:26.266Z,14.10
2018-07-23T23:12:34.120Z,13.77
2018-07-23T23:22:35.384Z,14.53
2018-07-23T23:32:36.673Z,13.37
2018-07-23T23:42:38.132Z,13.87
2018-07-23T23:52:39.411Z,13.33
